Weather observations for the past three days for
Sheldon
Imperial (Metric)
Date Time (cdt) Wind (mph) Vis. (mi.) Weather Sky Cond. Temperature (ºF) Relative Humidity Wind Chill (°F) Heat Index (°F) Pressure Precipitation (in)
Air Dwpt 6 hour altimeter (in) sea level (mb) 1 hr 3 hr 6 hr
Max. Min.
07 18:35 NW 10 G 16 10.00 Fair CLR 64.4 19.4 18% 29.79 0.0
07 18:15 NW 10 10.00 Fair CLR 64.4 19.4 18% 29.79 0.0
07 17:55 NW 3 10.00 Fair CLR 64.4 17.6 16% 29.79 0.0
07 17:35 NW 14 10.00 Fair CLR 64.4 19.4 18% 29.79 0.0
07 17:15 NW 7 G 15 10.00 Fair CLR 64.4 19.4 18% 29.79 0.0
07 16:55 N 12 10.00 Fair CLR 64.4 19.4 18% 29.79 0.0
07 16:35 NW 7 G 17 10.00 Fair CLR 64.4 19.4 18% 29.8 0.0
07 16:15 NW 8 10.00 Fair CLR 62.6 19.4 19% 29.8 0.0
07 15:55 SW 7 G 16 10.00 Fair CLR 62.6 19.4 19% 29.8 0.0
07 15:35 W 12 10.00 Fair CLR 64.4 19.4 18% 29.81 0.0
07 15:15 Calm 10.00 Fair CLR 62.6 21.2 20% 29.81 0.0
07 14:55 Vrbl 6 G 13 10.00 Fair CLR 62.6 19.4 19% 29.82 0.0
07 14:35 N 10 G 16 10.00 Fair CLR 60.8 21.2 22% 29.82 0.0
07 14:15 NW 12 10.00 Fair CLR 62.6 23 22% 29.83 0.0
07 13:55 NW 9 10.00 Fair CLR 60.8 23 23% 29.83 0.0
07 13:35 NW 13 10.00 Fair CLR 60.8 23 23% 29.83 0.0
07 13:15 Vrbl 5 10.00 Fair CLR 59 24.8 27% 29.83 0.0
07 12:55 Vrbl 7 10.00 Fair CLR 59 23 25% 29.84 0.0
07 12:35 S 5 10.00 Fair CLR 57.2 24.8 29% 29.84 0.0
07 12:15 Calm 10.00 Fair CLR 57.2 26.6 31% 29.85 0.0
07 11:55 Calm 10.00 Fair CLR 57.2 26.6 31% 29.85 0.0
07 11:35 Vrbl 7 10.00 Fair CLR 57.2 26.6 31% 29.85 0.0
07 11:15 NE 8 G 14 10.00 Fair CLR 55.4 26.6 33% 29.85 0.0
07 10:55 E 9 G 15 10.00 Fair CLR 55.4 26.6 33% 29.85 0.0
07 10:35 E 8 G 16 10.00 Fair CLR 53.6 26.6 35% 29.85 0.0
07 10:15 E 9 10.00 Fair CLR 53.6 26.6 35% 29.85 0.0
07 09:55 E 12 9.00 Fair CLR 51.8 26.6 38% 29.85 0.0
07 09:35 E 12 10.00 Fair CLR 50 28.4 43% 46 29.85 0.0
07 09:15 E 13 G 18 10.00 Fair CLR 48.2 26.6 43% 43 29.85 0.0
07 08:55 E 16 10.00 Fair CLR 48.2 26.6 43% 43 29.85 0.0
07 08:35 E 14 G 21 10.00 Fair CLR 46.4 26.6 46% 41 29.85 0.0
07 08:15 E 13 10.00 Fair CLR 44.6 26.6 49% 39 29.85 0.0
07 07:55 E 15 10.00 Fair CLR 42.8 26.6 53% 36 29.85 0.0
07 07:35 NE 10 10.00 Fair CLR 41 26.6 57% 35 29.85 0.0
07 07:15 E 10 10.00 Fair CLR 39.2 26.6 61% 33 29.84 0.0
07 06:55 NE 13 10.00 Fair CLR 35.6 26.6 70% 28 29.84 0.0
07 06:35 NE 13 10.00 Fair CLR 35.6 26.6 70% 28 29.84 0.0
07 06:15 NE 10 10.00 Fair CLR 35.6 24.8 65% 29 29.84 0.0
07 05:55 NE 8 G 16 10.00 NULL NULL 35.6 24.8 65% 30 29.84 0.0
07 05:35 Calm 10.00 NULL NULL 32 24.8 75% 29.84 0.0
07 05:15 E 5 10.00 Overcast BKN080 OVC095 33.8 24.8 70% 30 29.84 0.0
07 04:55 E 3 10.00 NULL NULL 33.8 24.8 70% 29.84 0.0
07 04:35 SE 7 10.00 Overcast SCT075 OVC100 35.6 24.8 65% 31 29.84 0.0
07 04:15 E 9 10.00 Overcast BKN100 OVC120 35.6 24.8 65% 29 29.85 0.0
07 03:55 E 9 10.00 NULL NULL 35.6 24.8 65% 29 29.85 0.0
07 03:35 E 9 10.00 NULL NULL 37.4 24.8 60% 31 29.86 0.0
07 03:15 SE 3 10.00 NULL NULL 33.8 24.8 70% 29.87 0.0
07 02:55 E 6 10.00 NULL NULL 37.4 24.8 60% 33 29.87 0.0
07 02:15 E 8 10.00 NULL NULL 39.2 24.8 56% 34 29.88 0.0
07 01:55 E 9 10.00 NULL NULL 41 24.8 53% 36 29.89 0.0
07 01:35 E 7 10.00 NULL NULL 42.8 26.6 53% 39 29.9 0.0
07 01:15 NE 6 10.00 Overcast FEW075 OVC100 41 24.8 53% 38 29.91 0.0
07 00:55 SE 3 10.00 Overcast FEW075 OVC100 41 24.8 53% 29.91 0.0
07 00:35 SE 6 10.00 NULL NULL 42.8 24.8 49% 40 29.91 0.0
07 00:15 NE 6 10.00 NULL NULL 44.6 24.8 46% 42 29.91 0.0
06 23:55 Calm 10.00 NULL NULL 44.6 24.8 46% 29.91 0.0
06 23:35 S 6 0.00 NULL NULL 44.6 24.8 46% 42 29.91 0.0
06 23:15 S 6 10.00 Overcast OVC090 44.6 24.8 46% 42 29.92 0.0
06 22:35 S 3 10.00 Overcast OVC090 44.6 23 43% 29.93 0.0
06 22:15 Calm 10.00 NULL NULL 44.6 23 43% 29.94 0.0
06 21:55 Calm 10.00 NULL NULL 42.8 23 46% 29.94 0.0
06 21:35 Calm 10.00 Overcast FEW070 BKN080 OVC090 46.4 21.2 37% 29.94 0.0
06 21:15 Calm 10.00 Overcast SCT075 OVC090 48.2 21.2 34% 29.94 0.0
06 20:55 Calm 10.00 Overcast FEW075 OVC090 50 21.2 32% 29.94 0.0
06 20:35 W 3 10.00 Overcast BKN080 OVC090 51.8 19.4 28% 29.94 0.0
06 20:15 NW 6 10.00 Overcast OVC090 51.8 19.4 28% 29.94 0.0
06 19:55 NW 7 10.00 Overcast OVC090 51.8 19.4 28% 29.94 0.0
06 19:35 NW 13 10.00 Overcast OVC085 53.6 19.4 26% 29.94 0.0
06 19:15 NW 12 10.00 Overcast OVC085 55.4 19.4 24% 29.94 0.0
06 18:55 W 15 G 22 10.00 Mostly Cloudy BKN085 55.4 19.4 24% 29.94 0.0
06 18:35 W 10 G 21 10.00 Mostly Cloudy BKN085 53.6 19.4 26% 29.95 0.0
06 18:15 NW 12 G 18 10.00 Mostly Cloudy BKN080 55.4 21.2 26% 29.95 0.0
06 17:55 NW 15 G 22 10.00 Mostly Cloudy SCT075 BKN090 53.6 21.2 28% 29.95 0.0
06 17:35 NW 15 G 21 10.00 Mostly Cloudy SCT075 BKN085 55.4 21.2 26% 29.96 0.0
06 17:15 NW 14 10.00 Mostly Cloudy BKN075 BKN090 55.4 21.2 26% 29.96 0.0
06 16:55 NW 14 10.00 Mostly Cloudy BKN080 53.6 21.2 28% 29.96 0.0
06 16:35 NW 10 G 18 10.00 Partly Cloudy SCT075 SCT085 53.6 19.4 26% 29.97 0.0
06 16:15 W 16 10.00 Mostly Cloudy BKN075 BKN085 53.6 21.2 28% 29.98 0.0
06 15:55 W 14 G 22 10.00 Mostly Cloudy SCT075 BKN085 53.6 21.2 28% 29.98 0.0
06 15:35 NW 14 G 21 10.00 Partly Cloudy SCT070 SCT080 53.6 21.2 28% 29.99 0.0
06 15:15 NW 10 G 20 10.00 Mostly Cloudy BKN070 BKN080 53.6 21.2 28% 30 0.0
06 14:55 W 15 G 28 10.00 Mostly Cloudy BKN070 BKN080 51.8 21.2 30% 30.01 0.0
06 14:35 NW 17 10.00 Mostly Cloudy BKN070 51.8 21.2 30% 30.01 0.0
06 14:15 NW 15 G 25 10.00 Mostly Cloudy BKN070 51.8 21.2 30% 30.01 0.0
06 13:55 W 15 G 25 10.00 Mostly Cloudy BKN070 51.8 19.4 28% 30.02 0.0
06 13:35 NW 18 G 26 10.00 Mostly Cloudy BKN070 51.8 21.2 30% 30.02 0.0
06 13:15 NW 20 G 28 10.00 Mostly Cloudy BKN060 BKN070 50 21.2 32% 44 30.03 0.0
06 12:55 W 16 10.00 Overcast BKN060 OVC070 48.2 21.2 34% 43 30.04 0.0
06 12:35 NW 12 G 24 10.00 Overcast BKN060 OVC070 48.2 21.2 34% 44 30.04 0.0
06 12:15 NW 16 G 29 10.00 Overcast OVC060 48.2 19.4 32% 43 30.04 0.0
06 11:55 NW 16 G 24 10.00 Mostly Cloudy BKN060 BKN070 48.2 19.4 32% 43 30.04 0.0
06 11:35 NW 15 G 28 10.00 Overcast OVC060 46.4 19.4 34% 41 30.05 0.0
06 11:15 NW 20 10.00 Overcast BKN060 OVC070 48.2 21.2 34% 42 30.05 0.0
06 10:55 NW 20 G 25 10.00 Overcast SCT055 OVC070 46.4 19.4 34% 40 30.05 0.0
06 10:35 NW 15 G 21 10.00 Mostly Cloudy BKN055 BKN070 46.4 21.2 37% 41 30.05 0.0
06 10:15 NW 12 G 20 10.00 A Few Clouds FEW050 FEW070 44.6 23 43% 39 30.04 0.0
06 09:55 NW 13 G 21 10.00 Fair CLR 44.6 21.2 39% 39 30.05 0.0
06 09:35 NW 12 G 20 10.00 Fair CLR 44.6 23 43% 39 30.05 0.0
06 09:15 W 9 10.00 Fair CLR 42.8 24.8 49% 38 30.05 0.0
06 08:55 NW 5 10.00 Fair CLR 41 24.8 53% 38 30.05 0.0
06 08:35 NW 5 10.00 A Few Clouds FEW070 41 24.8 53% 38 30.05 0.0
06 08:15 NW 5 10.00 Partly Cloudy SCT070 37.4 24.8 60% 34 30.04 0.0
06 07:55 NW 6 10.00 Fair CLR 35.6 24.8 65% 31 30.04 0.0
06 07:35 NW 5 9.00 Fair CLR 33.8 24.8 70% 30 30.04 0.0
06 07:15 Calm 10.00 Fair CLR 30.2 26.6 86% 30.03 0.0
06 06:55 Calm 8.00 Fair CLR 28.4 24.8 86% 30.02 0.0
06 06:35 Calm 10.00 Fair CLR 26.6 23 86% 30.01 0.0
06 06:15 Calm 10.00 Fair CLR 28.4 23 80% 30.01 0.0
06 05:55 Calm 10.00 A Few Clouds FEW060 FEW070 28.4 23 80% 30 0.0
06 05:35 Calm 10.00 NULL NULL 28.4 23 80% 30 0.0
06 05:15 Calm 10.00 NULL NULL 28.4 23 80% 30 0.0
06 04:55 W 3 10.00 NULL NULL 26.6 26.6 100% 30 0.0
06 04:35 SW 6 10.00 Fair CLR 28.4 24.8 86% 23 29.99 0.0
06 04:15 W 5 10.00 NULL NULL 26.6 21.2 80% 22 29.99 0.0
06 03:55 Calm 10.00 NULL NULL 28.4 21.2 74% 29.98 0.0
06 03:35 Calm 10.00 Fair CLR 30.2 21.2 69% 29.97 0.0
06 03:15 Calm 10.00 NULL NULL 30.2 21.2 69% 29.97 0.0
06 02:55 N 5 10.00 NULL NULL 30.2 21.2 69% 26 29.97 0.0
06 02:35 NW 5 10.00 Fair CLR 30.2 21.2 69% 26 29.97 0.0
06 02:15 Calm 10.00 Fair CLR 32 21.2 64% 29.97 0.0
06 01:55 NW 3 10.00 Fair CLR 32 21.2 64% 29.97 0.0
06 01:35 Calm 10.00 Fair CLR 32 21.2 64% 29.98 0.0
06 01:15 NW 3 10.00 Fair CLR 33.8 21.2 60% 29.97 0.0
06 00:55 NW 6 9.00 Fair CLR 33.8 21.2 60% 29 29.96 0.0
06 00:15 NW 6 10.00 NULL NULL 35.6 21.2 56% 31 29.95 0.0
05 23:55 NW 6 10.00 NULL NULL 35.6 21.2 56% 31 29.95 0.0
05 23:35 NW 6 10.00 NULL NULL 35.6 21.2 56% 31 29.95 0.0
05 23:15 NW 6 10.00 NULL NULL 37.4 21.2 52% 33 29.95 0.0
05 22:55 NW 7 10.00 NULL NULL 39.2 23 52% 35 29.95 0.0
05 22:35 NW 8 10.00 NULL NULL 41 23 49% 36 29.95 0.0
05 22:15 NW 9 10.00 Mostly Cloudy BKN075 42.8 23 46% 38 29.95 0.0
05 21:55 NW 9 10.00 NULL NULL 44.6 21.2 39% 40 29.94 0.0
05 21:35 N 9 10.00 Overcast OVC070 44.6 21.2 39% 40 29.93 0.0
05 21:15 NW 12 10.00 Overcast OVC075 46.4 21.2 37% 42 29.92 0.0
05 20:55 NW 8 10.00 Overcast OVC075 46.4 21.2 37% 43 29.91 0.0
05 20:35 NW 13 10.00 Overcast OVC070 46.4 21.2 37% 41 29.9 0.0
05 20:15 NW 12 10.00 Overcast OVC075 46.4 19.4 34% 42 29.9 0.0
05 19:55 NW 16 G 22 10.00 Mostly Cloudy BKN075 48.2 19.4 32% 43 29.89 0.0
05 19:35 NW 15 G 22 10.00 Partly Cloudy SCT070 48.2 19.4 32% 43 29.89 0.0
05 19:15 NW 16 G 25 10.00 Mostly Cloudy BKN075 50 17.6 28% 45 29.88 0.0
05 18:55 NW 17 G 25 10.00 Mostly Cloudy BKN075 50 17.6 28% 45 29.88 0.0
05 18:35 NW 15 G 21 10.00 Partly Cloudy SCT075 50 17.6 28% 45 29.88 0.0
05 18:15 NW 17 10.00 Mostly Cloudy BKN075 50 17.6 28% 45 29.87 0.0
05 17:55 NW 15 G 23 10.00 Partly Cloudy SCT075 51.8 17.6 26% 29.86 0.0
05 17:35 NW 22 G 29 10.00 Partly Cloudy and Breezy SCT075 51.8 17.6 26% 29.86 0.0
05 17:15 NW 18 10.00 Mostly Cloudy BKN075 51.8 19.4 28% 29.86 0.0
05 16:55 NW 18 G 30 10.00 Mostly Cloudy BKN070 51.8 19.4 28% 29.87 0.0
05 16:35 NW 22 10.00 Mostly Cloudy and Breezy BKN070 53.6 19.4 26% 29.87 0.0
05 16:15 NW 15 G 23 10.00 Mostly Cloudy BKN065 BKN075 50 19.4 30% 45 29.87 0.0
05 15:55 NW 15 G 25 10.00 Mostly Cloudy BKN065 BKN075 51.8 21.2 30% 29.88 0.0
05 15:35 NW 17 G 24 10.00 Overcast BKN065 OVC070 51.8 23 32% 29.88 0.0
05 15:15 NW 16 G 23 10.00 Overcast OVC070 51.8 21.2 30% 29.88 0.0
05 14:35 NW 17 G 25 10.00 Mostly Cloudy BKN065 BKN075 51.8 21.2 30% 29.88 0.0
05 14:15 NW 13 G 21 10.00 Partly Cloudy SCT065 51.8 19.4 28% 29.88 0.0
05 13:55 NW 16 G 26 10.00 Mostly Cloudy BKN065 BKN070 50 21.2 32% 45 29.88 0.0
05 13:35 NW 13 G 21 10.00 Mostly Cloudy BKN070 51.8 19.4 28% 29.88 0.0
05 13:10 NW 14 G 22 10.00 Overcast OVC060 50 23 35% 45 29.89 0.0
05 12:55 NW 14 G 24 10.00 Overcast OVC065 51.8 21.2 30% 29.88 0.0
05 12:35 N 14 10.00 Overcast BKN060 OVC070 50 21.2 32% 45 29.89 0.0
05 12:15 N 9 G 18 10.00 Overcast OVC060 48.2 23 37% 45 29.89 0.0
05 11:55 NW 13 G 22 10.00 Partly Cloudy SCT060 50 23 35% 46 29.89 0.0
05 11:35 NW 14 G 22 10.00 A Few Clouds FEW060 50 21.2 32% 45 29.88 0.0
05 11:15 NW 18 10.00 A Few Clouds FEW060 50 23 35% 44 29.88 0.0
05 10:55 NW 14 G 25 10.00 Fair CLR 48.2 21.2 34% 43 29.88 0.0
05 10:35 NW 16 10.00 Fair CLR 48.2 21.2 34% 43 29.88 0.0
05 10:15 NW 13 G 20 10.00 Fair CLR 46.4 23 40% 41 29.88 0.0
05 09:55 NW 15 10.00 Fair CLR 46.4 24.8 43% 41 29.88 0.0
05 09:35 NW 13 10.00 Fair CLR 44.6 26.6 49% 39 29.88 0.0
05 09:15 NW 10 10.00 Fair CLR 44.6 26.6 49% 40 29.88 0.0
05 08:55 NW 8 10.00 Fair CLR 42.8 28.4 57% 39 29.87 0.0
05 08:35 NW 8 10.00 Fair CLR 42.8 28.4 57% 39 29.87 0.0
05 08:15 NW 8 10.00 Fair CLR 41 28.4 61% 36 29.86 0.0
05 07:55 NW 8 10.00 Fair CLR 41 28.4 61% 36 29.86 0.0
05 07:35 W 7 10.00 Fair CLR 39.2 28.4 65% 35 29.85 0.0
05 07:15 Calm 10.00 Fair CLR 37.4 30.2 75% 29.84 0.0
05 06:55 W 3 10.00 Fair CLR 33.8 28.4 81% 29.84 0.0
05 06:35 W 5 10.00 Fair CLR 32 26.6 80% 28 29.83 0.0
05 06:15 Calm 10.00 Fair CLR 32 26.6 80% 29.82 0.0
05 05:55 W 3 10.00 Fair CLR 33.8 24.8 70% 29.82 0.0
05 05:35 Calm 10.00 Fair CLR 33.8 26.6 75% 29.81 0.0
05 05:15 W 3 10.00 Fair CLR 32 24.8 75% 29.81 0.0
05 04:55 NW 5 10.00 Fair CLR 33.8 24.8 70% 30 29.81 0.0
05 04:35 Calm 10.00 Fair CLR 32 26.6 80% 29.8 0.0
05 04:15 NW 5 10.00 NULL NULL 33.8 24.8 70% 30 29.8 0.0
05 03:55 Calm 10.00 NULL NULL 35.6 26.6 70% 29.79 0.0
05 03:35 Calm 10.00 NULL NULL 33.8 24.8 70% 29.79 0.0
05 03:15 NW 6 10.00 NULL NULL 35.6 26.6 70% 31 29.79 0.0
05 02:55 NW 5 10.00 Fair CLR 37.4 26.6 65% 34 29.79 0.0
05 02:35 NW 5 10.00 Fair CLR 37.4 26.6 65% 34 29.78 0.0
05 02:15 NW 3 10.00 Fair CLR 37.4 26.6 65% 29.78 0.0
05 01:55 NW 3 10.00 Fair CLR 37.4 26.6 65% 29.77 0.0
05 01:35 NW 7 10.00 NULL NULL 37.4 26.6 65% 33 29.77 0.0
05 01:15 NW 6 10.00 NULL NULL 39.2 26.6 61% 36 29.77 0.0
05 00:55 NW 7 10.00 Fair CLR 41 26.6 57% 37 29.77 0.0
05 00:35 NW 6 10.00 Fair CLR 42.8 26.6 53% 40 29.77 0.0
05 00:15 NW 8 10.00 NULL NULL 42.8 26.6 53% 39 29.77 0.0
04 23:55 NW 6 10.00 NULL NULL 44.6 28.4 53% 42 29.77 0.0
04 23:35 N 3 10.00 Fair CLR 44.6 28.4 53% 29.77 0.0
04 23:15 NW 6 10.00 Fair CLR 46.4 26.6 46% 44 29.77 0.0
04 22:55 W 5 10.00 Fair CLR 48.2 26.6 43% 47 29.77 0.0
04 22:35 NW 5 10.00 Fair CLR 48.2 26.6 43% 47 29.77 0.0
04 22:15 NW 6 10.00 Fair CLR 48.2 26.6 43% 46 29.77 0.0
04 21:55 NW 5 10.00 Fair CLR 48.2 26.6 43% 47 29.77 0.0
04 21:35 NW 6 10.00 Fair CLR 48.2 26.6 43% 46 29.77 0.0
04 21:15 NW 8 10.00 Fair CLR 50 26.6 40% 47 29.76 0.0
04 20:55 NW 8 G 14 10.00 Fair CLR 51.8 24.8 35% 29.75 0.0
04 20:35 NW 12 G 20 10.00 Fair CLR 51.8 24.8 35% 29.74 0.0
04 20:15 NW 16 10.00 Fair CLR 53.6 24.8 33% 29.74 0.0
04 19:55 NW 14 G 24 10.00 Fair CLR 53.6 26.6 35% 29.73 0.0
04 19:35 NW 22 10.00 Fair and Breezy CLR 53.6 26.6 35% 29.73 0.0
04 19:15 NW 24 G 37 10.00 Fair and Breezy CLR 53.6 26.6 35% 29.72 0.0
Date Time (cdt) Wind (mph) Vis. (mi.) Weather Sky Cond. Air Dwpt Max. Min. Relative Humidity Wind Chill (°F) Heat Index (°F) altimeter (in) sea level (mb) 1 hr 3 hr 6 hr
6 hour
Temperature (ºF) Pressure Precipitation (in)